You are not logged in, Click here to log in
機場資訊:VTBS Welcome to Taiwan Airways 台灣虛擬航空
ICAO: VTBS Country: 泰國曼谷以東25公里北欖府Bang Phli區
Latitude: 13.69 Longitude: 100.75
Total Arrivals: 47 Total Departures: 46
Latest Arrival: VJ0803 (VVTS-VTBS)Gudetama. Chen Latest Departure: VJ0804 (VTBS-VVTS)Gudetama. Chen
Scenery:
METAR : VTBS 211500Z VRB02KT 9000 FEW020 SCT050 30/23 Q1010 NOSIG

蘇萬那普國際機場(曼谷國際機場) BKK